sensor_id;sensor_type;location;lat;lon;timestamp;P1;durP1;ratioP1;P2;durP2;ratioP2
13435;SDS011;6790;49.520;8.504;2023-04-21T00:01:03;15.03;;;8.73;;
13435;SDS011;6790;49.520;8.504;2023-04-21T00:03:32;18.23;;;9.00;;
13435;SDS011;6790;49.520;8.504;2023-04-21T00:06:02;14.43;;;9.33;;
13435;SDS011;6790;49.520;8.504;2023-04-21T00:08:30;14.03;;;9.60;;
13435;SDS011;6790;49.520;8.504;2023-04-21T00:10:56;17.57;;;8.30;;
13435;SDS011;6790;49.520;8.504;2023-04-21T00:13:22;15.30;;;9.57;;
13435;SDS011;6790;49.520;8.504;2023-04-21T00:15:48;14.27;;;9.20;;
13435;SDS011;6790;49.520;8.504;2023-04-21T00:18:14;15.73;;;8.07;;
13435;SDS011;6790;49.520;8.504;2023-04-21T00:20:41;15.37;;;9.10;;
13435;SDS011;6790;49.520;8.504;2023-04-21T00:23:09;14.00;;;8.77;;
13435;SDS011;6790;49.520;8.504;2023-04-21T00:25:35;12.20;;;7.73;;
13435;SDS011;6790;49.520;8.504;2023-04-21T00:28:01;17.57;;;8.30;;
13435;SDS011;6790;49.520;8.504;2023-04-21T00:30:26;13.33;;;7.73;;
13435;SDS011;6790;49.520;8.504;2023-04-21T00:32:52;11.13;;;7.33;;
13435;SDS011;6790;49.520;8.504;2023-04-21T00:35:18;11.43;;;6.60;;
13435;SDS011;6790;49.520;8.504;2023-04-21T00:37:44;13.83;;;7.53;;
13435;SDS011;6790;49.520;8.504;2023-04-21T00:40:10;11.47;;;8.07;;
13435;SDS011;6790;49.520;8.504;2023-04-21T00:42:36;15.70;;;7.23;;
13435;SDS011;6790;49.520;8.504;2023-04-21T00:45:04;11.07;;;6.97;;
13435;SDS011;6790;49.520;8.504;2023-04-21T00:47:31;11.27;;;6.87;;
13435;SDS011;6790;49.520;8.504;2023-04-21T00:49:57;13.10;;;6.30;;
13435;SDS011;6790;49.520;8.504;2023-04-21T00:52:23;11.13;;;7.40;;
13435;SDS011;6790;49.520;8.504;2023-04-21T00:54:50;9.47;;;7.37;;
13435;SDS011;6790;49.520;8.504;2023-04-21T00:57:18;11.77;;;7.43;;
13435;SDS011;6790;49.520;8.504;2023-04-21T00:59:45;13.90;;;7.70;;
13435;SDS011;6790;49.520;8.504;2023-04-21T01:02:10;10.00;;;7.23;;
13435;SDS011;6790;49.520;8.504;2023-04-21T01:04:38;9.53;;;6.37;;
13435;SDS011;6790;49.520;8.504;2023-04-21T01:07:05;10.43;;;7.37;;
13435;SDS011;6790;49.520;8.504;2023-04-21T01:09:32;13.47;;;8.10;;
13435;SDS011;6790;49.520;8.504;2023-04-21T01:12:16;9.23;;;6.90;;
13435;SDS011;6790;49.520;8.504;2023-04-21T01:14:42;13.40;;;9.00;;
13435;SDS011;6790;49.520;8.504;2023-04-21T01:17:07;13.87;;;8.00;;
13435;SDS011;6790;49.520;8.504;2023-04-21T01:19:35;12.20;;;7.63;;
13435;SDS011;6790;49.520;8.504;2023-04-21T01:22:07;12.33;;;8.40;;
13435;SDS011;6790;49.520;8.504;2023-04-21T01:24:35;11.23;;;8.47;;
13435;SDS011;6790;49.520;8.504;2023-04-21T01:27:10;14.47;;;8.47;;
13435;SDS011;6790;49.520;8.504;2023-04-21T01:29:43;12.50;;;7.73;;
13435;SDS011;6790;49.520;8.504;2023-04-21T01:32:15;9.70;;;6.73;;
13435;SDS011;6790;49.520;8.504;2023-04-21T01:34:43;12.43;;;7.43;;
13435;SDS011;6790;49.520;8.504;2023-04-21T01:37:11;12.33;;;6.73;;
13435;SDS011;6790;49.520;8.504;2023-04-21T01:39:40;10.07;;;6.60;;
13435;SDS011;6790;49.520;8.504;2023-04-21T01:42:09;10.97;;;7.03;;
13435;SDS011;6790;49.520;8.504;2023-04-21T01:44:35;10.13;;;6.03;;
13435;SDS011;6790;49.520;8.504;2023-04-21T01:47:02;10.47;;;6.80;;
13435;SDS011;6790;49.520;8.504;2023-04-21T01:49:28;11.23;;;7.27;;
13435;SDS011;6790;49.520;8.504;2023-04-21T01:51:54;10.77;;;7.13;;
13435;SDS011;6790;49.520;8.504;2023-04-21T01:54:20;12.87;;;7.90;;
13435;SDS011;6790;49.520;8.504;2023-04-21T01:56:45;11.17;;;7.40;;
13435;SDS011;6790;49.520;8.504;2023-04-21T01:59:11;13.47;;;6.90;;
13435;SDS011;6790;49.520;8.504;2023-04-21T02:01:37;11.20;;;7.13;;
13435;SDS011;6790;49.520;8.504;2023-04-21T02:04:03;14.47;;;7.67;;
13435;SDS011;6790;49.520;8.504;2023-04-21T02:06:29;13.73;;;8.67;;
13435;SDS011;6790;49.520;8.504;2023-04-21T02:08:57;14.17;;;8.53;;
13435;SDS011;6790;49.520;8.504;2023-04-21T02:11:23;14.53;;;8.37;;
13435;SDS011;6790;49.520;8.504;2023-04-21T02:13:51;11.20;;;7.73;;
13435;SDS011;6790;49.520;8.504;2023-04-21T02:16:18;13.50;;;7.73;;
13435;SDS011;6790;49.520;8.504;2023-04-21T02:18:44;13.37;;;8.20;;
13435;SDS011;6790;49.520;8.504;2023-04-21T02:21:11;11.97;;;8.10;;
13435;SDS011;6790;49.520;8.504;2023-04-21T02:23:37;12.23;;;8.53;;
13435;SDS011;6790;49.520;8.504;2023-04-21T02:26:02;16.63;;;9.00;;
13435;SDS011;6790;49.520;8.504;2023-04-21T02:28:28;9.93;;;7.00;;
13435;SDS011;6790;49.520;8.504;2023-04-21T02:30:55;12.23;;;7.37;;
13435;SDS011;6790;49.520;8.504;2023-04-21T02:33:21;12.73;;;7.43;;
13435;SDS011;6790;49.520;8.504;2023-04-21T02:35:47;13.70;;;8.43;;
13435;SDS011;6790;49.520;8.504;2023-04-21T02:38:12;12.70;;;7.87;;
13435;SDS011;6790;49.520;8.504;2023-04-21T02:40:38;15.40;;;8.13;;
13435;SDS011;6790;49.520;8.504;2023-04-21T02:43:05;13.90;;;8.00;;
13435;SDS011;6790;49.520;8.504;2023-04-21T02:45:30;13.20;;;8.07;;
13435;SDS011;6790;49.520;8.504;2023-04-21T02:47:56;11.30;;;7.37;;
13435;SDS011;6790;49.520;8.504;2023-04-21T02:50:23;11.13;;;7.50;;
13435;SDS011;6790;49.520;8.504;2023-04-21T02:52:49;10.90;;;7.87;;
13435;SDS011;6790;49.520;8.504;2023-04-21T02:55:15;10.30;;;7.37;;
13435;SDS011;6790;49.520;8.504;2023-04-21T02:57:40;12.53;;;7.37;;
13435;SDS011;6790;49.520;8.504;2023-04-21T03:00:06;14.00;;;8.43;;
13435;SDS011;6790;49.520;8.504;2023-04-21T03:02:35;15.40;;;8.77;;
13435;SDS011;6790;49.520;8.504;2023-04-21T03:05:01;12.63;;;8.03;;
13435;SDS011;6790;49.520;8.504;2023-04-21T03:07:28;10.50;;;7.57;;
13435;SDS011;6790;49.520;8.504;2023-04-21T03:09:53;11.93;;;7.53;;
13435;SDS011;6790;49.520;8.504;2023-04-21T03:12:19;11.93;;;7.57;;
13435;SDS011;6790;49.520;8.504;2023-04-21T03:14:45;12.87;;;7.50;;
13435;SDS011;6790;49.520;8.504;2023-04-21T03:17:11;11.47;;;7.70;;
13435;SDS011;6790;49.520;8.504;2023-04-21T03:19:37;13.87;;;9.07;;
13435;SDS011;6790;49.520;8.504;2023-04-21T03:22:02;11.80;;;7.83;;
13435;SDS011;6790;49.520;8.504;2023-04-21T03:24:28;14.13;;;8.87;;
13435;SDS011;6790;49.520;8.504;2023-04-21T03:26:54;10.53;;;7.37;;
13435;SDS011;6790;49.520;8.504;2023-04-21T03:29:21;14.73;;;7.73;;
13435;SDS011;6790;49.520;8.504;2023-04-21T03:31:47;11.73;;;8.40;;
13435;SDS011;6790;49.520;8.504;2023-04-21T03:34:12;13.13;;;8.93;;
13435;SDS011;6790;49.520;8.504;2023-04-21T03:36:38;15.13;;;9.00;;
13435;SDS011;6790;49.520;8.504;2023-04-21T03:39:04;16.13;;;9.23;;
13435;SDS011;6790;49.520;8.504;2023-04-21T03:41:30;13.70;;;9.33;;
13435;SDS011;6790;49.520;8.504;2023-04-21T03:43:57;10.83;;;8.00;;
13435;SDS011;6790;49.520;8.504;2023-04-21T03:46:23;42.27;;;8.60;;
13435;SDS011;6790;49.520;8.504;2023-04-21T03:48:49;33.87;;;10.67;;
13435;SDS011;6790;49.520;8.504;2023-04-21T03:51:15;17.30;;;9.87;;
13435;SDS011;6790;49.520;8.504;2023-04-21T03:53:41;21.77;;;9.00;;
13435;SDS011;6790;49.520;8.504;2023-04-21T03:56:07;18.17;;;9.90;;
13435;SDS011;6790;49.520;8.504;2023-04-21T03:58:33;22.63;;;8.90;;
13435;SDS011;6790;49.520;8.504;2023-04-21T04:00:59;37.07;;;10.93;;
13435;SDS011;6790;49.520;8.504;2023-04-21T04:03:25;29.37;;;10.27;;
13435;SDS011;6790;49.520;8.504;2023-04-21T04:05:51;19.97;;;10.57;;
13435;SDS011;6790;49.520;8.504;2023-04-21T04:08:16;20.40;;;9.70;;
13435;SDS011;6790;49.520;8.504;2023-04-21T04:10:42;21.73;;;9.83;;
13435;SDS011;6790;49.520;8.504;2023-04-21T04:13:08;16.13;;;8.97;;
13435;SDS011;6790;49.520;8.504;2023-04-21T04:15:33;19.23;;;10.80;;
13435;SDS011;6790;49.520;8.504;2023-04-21T04:17:59;28.43;;;10.33;;
13435;SDS011;6790;49.520;8.504;2023-04-21T04:20:25;70.03;;;13.83;;
13435;SDS011;6790;49.520;8.504;2023-04-21T04:22:51;27.13;;;11.47;;
13435;SDS011;6790;49.520;8.504;2023-04-21T04:25:17;23.30;;;11.57;;
13435;SDS011;6790;49.520;8.504;2023-04-21T04:27:43;61.10;;;10.67;;
13435;SDS011;6790;49.520;8.504;2023-04-21T04:30:09;26.50;;;12.00;;
13435;SDS011;6790;49.520;8.504;2023-04-21T04:32:37;22.50;;;10.50;;
13435;SDS011;6790;49.520;8.504;2023-04-21T04:35:06;28.00;;;9.30;;
13435;SDS011;6790;49.520;8.504;2023-04-21T04:37:35;45.10;;;9.87;;
13435;SDS011;6790;49.520;8.504;2023-04-21T04:40:01;18.97;;;9.37;;
13435;SDS011;6790;49.520;8.504;2023-04-21T04:42:34;17.70;;;10.47;;
13435;SDS011;6790;49.520;8.504;2023-04-21T04:45:00;27.03;;;11.73;;
13435;SDS011;6790;49.520;8.504;2023-04-21T04:47:27;39.17;;;12.87;;
13435;SDS011;6790;49.520;8.504;2023-04-21T04:49:53;37.50;;;11.57;;
13435;SDS011;6790;49.520;8.504;2023-04-21T04:52:19;22.20;;;10.57;;
13435;SDS011;6790;49.520;8.504;2023-04-21T04:54:44;24.20;;;10.07;;
13435;SDS011;6790;49.520;8.504;2023-04-21T04:57:10;36.13;;;12.83;;
13435;SDS011;6790;49.520;8.504;2023-04-21T04:59:36;82.90;;;12.27;;
13435;SDS011;6790;49.520;8.504;2023-04-21T05:02:02;42.83;;;11.07;;
13435;SDS011;6790;49.520;8.504;2023-04-21T05:04:28;34.07;;;10.77;;
13435;SDS011;6790;49.520;8.504;2023-04-21T05:06:53;39.83;;;10.80;;
13435;SDS011;6790;49.520;8.504;2023-04-21T05:09:19;57.73;;;11.60;;
13435;SDS011;6790;49.520;8.504;2023-04-21T05:11:45;25.03;;;11.77;;
13435;SDS011;6790;49.520;8.504;2023-04-21T05:14:11;32.43;;;11.10;;
13435;SDS011;6790;49.520;8.504;2023-04-21T05:16:36;18.23;;;11.40;;
13435;SDS011;6790;49.520;8.504;2023-04-21T05:19:02;27.23;;;10.67;;
13435;SDS011;6790;49.520;8.504;2023-04-21T05:21:28;21.80;;;10.50;;
13435;SDS011;6790;49.520;8.504;2023-04-21T05:23:55;25.33;;;11.73;;
13435;SDS011;6790;49.520;8.504;2023-04-21T05:26:26;24.50;;;10.50;;
13435;SDS011;6790;49.520;8.504;2023-04-21T05:28:56;29.77;;;9.93;;
13435;SDS011;6790;49.520;8.504;2023-04-21T05:31:23;47.63;;;10.93;;
13435;SDS011;6790;49.520;8.504;2023-04-21T05:33:49;22.00;;;12.57;;
13435;SDS011;6790;49.520;8.504;2023-04-21T05:36:15;19.93;;;12.67;;
13435;SDS011;6790;49.520;8.504;2023-04-21T05:38:40;38.83;;;16.17;;
13435;SDS011;6790;49.520;8.504;2023-04-21T05:41:06;23.30;;;12.00;;
13435;SDS011;6790;49.520;8.504;2023-04-21T05:43:32;27.03;;;11.53;;
13435;SDS011;6790;49.520;8.504;2023-04-21T05:46:02;21.03;;;12.37;;
13435;SDS011;6790;49.520;8.504;2023-04-21T05:48:33;21.20;;;12.23;;
13435;SDS011;6790;49.520;8.504;2023-04-21T05:51:11;32.10;;;17.97;;
13435;SDS011;6790;49.520;8.504;2023-04-21T05:53:39;33.03;;;17.27;;
13435;SDS011;6790;49.520;8.504;2023-04-21T05:56:09;39.07;;;18.67;;
13435;SDS011;6790;49.520;8.504;2023-04-21T05:58:36;27.27;;;14.00;;
13435;SDS011;6790;49.520;8.504;2023-04-21T06:01:02;25.47;;;14.90;;
13435;SDS011;6790;49.520;8.504;2023-04-21T06:03:30;28.10;;;12.37;;
13435;SDS011;6790;49.520;8.504;2023-04-21T06:05:56;25.67;;;13.10;;
13435;SDS011;6790;49.520;8.504;2023-04-21T06:08:23;23.80;;;12.13;;
13435;SDS011;6790;49.520;8.504;2023-04-21T06:10:48;30.03;;;12.37;;
13435;SDS011;6790;49.520;8.504;2023-04-21T06:13:14;25.30;;;11.93;;
13435;SDS011;6790;49.520;8.504;2023-04-21T06:15:40;22.80;;;12.70;;
13435;SDS011;6790;49.520;8.504;2023-04-21T06:18:05;24.53;;;14.10;;
13435;SDS011;6790;49.520;8.504;2023-04-21T06:20:31;23.27;;;12.70;;
13435;SDS011;6790;49.520;8.504;2023-04-21T06:22:57;34.30;;;13.97;;
13435;SDS011;6790;49.520;8.504;2023-04-21T06:25:23;20.27;;;12.87;;
13435;SDS011;6790;49.520;8.504;2023-04-21T06:27:48;22.00;;;13.03;;
13435;SDS011;6790;49.520;8.504;2023-04-21T06:30:15;29.67;;;13.03;;
13435;SDS011;6790;49.520;8.504;2023-04-21T06:32:41;31.97;;;14.27;;
13435;SDS011;6790;49.520;8.504;2023-04-21T06:35:09;31.67;;;14.77;;
13435;SDS011;6790;49.520;8.504;2023-04-21T06:37:35;30.67;;;15.83;;
13435;SDS011;6790;49.520;8.504;2023-04-21T06:40:01;24.80;;;13.40;;
13435;SDS011;6790;49.520;8.504;2023-04-21T06:42:27;25.33;;;13.40;;
13435;SDS011;6790;49.520;8.504;2023-04-21T06:44:53;27.13;;;14.07;;
13435;SDS011;6790;49.520;8.504;2023-04-21T06:47:20;24.00;;;13.93;;
13435;SDS011;6790;49.520;8.504;2023-04-21T06:49:46;26.07;;;14.27;;
13435;SDS011;6790;49.520;8.504;2023-04-21T06:52:11;33.50;;;15.23;;
13435;SDS011;6790;49.520;8.504;2023-04-21T06:54:38;26.77;;;14.40;;
13435;SDS011;6790;49.520;8.504;2023-04-21T06:57:04;31.10;;;15.63;;
13435;SDS011;6790;49.520;8.504;2023-04-21T06:59:29;29.27;;;16.27;;
13435;SDS011;6790;49.520;8.504;2023-04-21T07:01:55;26.63;;;14.93;;
13435;SDS011;6790;49.520;8.504;2023-04-21T07:04:21;29.30;;;15.23;;
13435;SDS011;6790;49.520;8.504;2023-04-21T07:06:46;33.37;;;16.80;;
13435;SDS011;6790;49.520;8.504;2023-04-21T07:09:13;30.00;;;16.37;;
13435;SDS011;6790;49.520;8.504;2023-04-21T07:11:39;28.27;;;15.10;;
13435;SDS011;6790;49.520;8.504;2023-04-21T07:14:04;24.67;;;13.37;;
13435;SDS011;6790;49.520;8.504;2023-04-21T07:16:30;23.70;;;13.47;;
13435;SDS011;6790;49.520;8.504;2023-04-21T07:18:56;22.03;;;13.00;;
13435;SDS011;6790;49.520;8.504;2023-04-21T07:21:22;25.37;;;14.63;;
13435;SDS011;6790;49.520;8.504;2023-04-21T07:23:48;24.53;;;15.13;;
13435;SDS011;6790;49.520;8.504;2023-04-21T07:26:14;31.93;;;14.67;;
13435;SDS011;6790;49.520;8.504;2023-04-21T07:28:39;30.03;;;14.67;;
13435;SDS011;6790;49.520;8.504;2023-04-21T07:31:05;26.27;;;14.90;;
13435;SDS011;6790;49.520;8.504;2023-04-21T07:33:31;29.07;;;14.90;;
13435;SDS011;6790;49.520;8.504;2023-04-21T07:35:57;27.00;;;15.73;;
13435;SDS011;6790;49.520;8.504;2023-04-21T07:38:23;26.43;;;15.50;;
13435;SDS011;6790;49.520;8.504;2023-04-21T07:40:48;31.77;;;15.83;;
13435;SDS011;6790;49.520;8.504;2023-04-21T07:43:14;41.90;;;20.40;;
13435;SDS011;6790;49.520;8.504;2023-04-21T07:45:40;44.13;;;21.40;;
13435;SDS011;6790;49.520;8.504;2023-04-21T07:48:06;62.73;;;24.43;;
13435;SDS011;6790;49.520;8.504;2023-04-21T07:50:32;62.07;;;22.77;;
13435;SDS011;6790;49.520;8.504;2023-04-21T07:53:01;60.90;;;24.00;;
13435;SDS011;6790;49.520;8.504;2023-04-21T07:55:27;48.23;;;21.77;;
13435;SDS011;6790;49.520;8.504;2023-04-21T07:57:53;58.83;;;24.47;;
13435;SDS011;6790;49.520;8.504;2023-04-21T08:00:19;56.57;;;24.13;;
13435;SDS011;6790;49.520;8.504;2023-04-21T08:02:45;65.83;;;26.33;;
13435;SDS011;6790;49.520;8.504;2023-04-21T08:05:11;63.17;;;25.17;;
13435;SDS011;6790;49.520;8.504;2023-04-21T08:07:37;57.50;;;23.53;;
13435;SDS011;6790;49.520;8.504;2023-04-21T08:10:03;51.60;;;21.53;;
13435;SDS011;6790;49.520;8.504;2023-04-21T08:12:31;50.27;;;21.10;;
13435;SDS011;6790;49.520;8.504;2023-04-21T08:14:56;50.50;;;21.33;;
13435;SDS011;6790;49.520;8.504;2023-04-21T08:17:22;44.70;;;20.27;;
13435;SDS011;6790;49.520;8.504;2023-04-21T08:19:48;46.53;;;19.43;;
13435;SDS011;6790;49.520;8.504;2023-04-21T08:22:14;46.77;;;20.40;;
13435;SDS011;6790;49.520;8.504;2023-04-21T08:24:39;38.47;;;18.60;;
13435;SDS011;6790;49.520;8.504;2023-04-21T08:27:05;36.37;;;17.97;;
13435;SDS011;6790;49.520;8.504;2023-04-21T08:29:31;35.63;;;17.77;;
13435;SDS011;6790;49.520;8.504;2023-04-21T08:31:56;40.27;;;18.73;;
13435;SDS011;6790;49.520;8.504;2023-04-21T08:34:22;34.97;;;16.67;;
13435;SDS011;6790;49.520;8.504;2023-04-21T08:36:48;36.00;;;18.63;;
13435;SDS011;6790;49.520;8.504;2023-04-21T08:39:14;30.30;;;16.77;;
13435;SDS011;6790;49.520;8.504;2023-04-21T08:41:40;27.53;;;15.57;;
13435;SDS011;6790;49.520;8.504;2023-04-21T08:44:07;23.80;;;15.00;;
13435;SDS011;6790;49.520;8.504;2023-04-21T08:46:33;24.10;;;14.60;;
13435;SDS011;6790;49.520;8.504;2023-04-21T08:49:00;21.97;;;14.27;;
13435;SDS011;6790;49.520;8.504;2023-04-21T08:51:27;26.87;;;15.07;;
13435;SDS011;6790;49.520;8.504;2023-04-21T08:53:54;21.73;;;14.60;;
13435;SDS011;6790;49.520;8.504;2023-04-21T08:56:20;20.83;;;14.90;;
13435;SDS011;6790;49.520;8.504;2023-04-21T08:58:46;22.40;;;14.10;;
13435;SDS011;6790;49.520;8.504;2023-04-21T09:01:11;23.43;;;13.97;;
13435;SDS011;6790;49.520;8.504;2023-04-21T09:03:37;23.00;;;14.37;;
13435;SDS011;6790;49.520;8.504;2023-04-21T09:06:04;21.37;;;14.23;;
13435;SDS011;6790;49.520;8.504;2023-04-21T09:08:32;23.33;;;15.07;;
13435;SDS011;6790;49.520;8.504;2023-04-21T09:11:01;22.27;;;15.33;;
13435;SDS011;6790;49.520;8.504;2023-04-21T09:13:28;19.80;;;13.30;;
13435;SDS011;6790;49.520;8.504;2023-04-21T09:15:56;19.93;;;13.70;;
13435;SDS011;6790;49.520;8.504;2023-04-21T09:18:23;19.70;;;13.13;;
13435;SDS011;6790;49.520;8.504;2023-04-21T09:21:03;16.53;;;12.17;;
13435;SDS011;6790;49.520;8.504;2023-04-21T09:26:11;14.90;;;10.00;;
13435;SDS011;6790;49.520;8.504;2023-04-21T09:28:39;14.27;;;9.03;;
13435;SDS011;6790;49.520;8.504;2023-04-21T09:31:16;12.70;;;9.17;;
13435;SDS011;6790;49.520;8.504;2023-04-21T09:33:48;12.00;;;8.50;;
13435;SDS011;6790;49.520;8.504;2023-04-21T09:36:20;11.33;;;8.50;;
13435;SDS011;6790;49.520;8.504;2023-04-21T09:41:19;14.97;;;10.30;;
13435;SDS011;6790;49.520;8.504;2023-04-21T09:43:46;12.77;;;9.17;;
13435;SDS011;6790;49.520;8.504;2023-04-21T09:46:12;14.47;;;10.90;;
13435;SDS011;6790;49.520;8.504;2023-04-21T09:48:42;13.50;;;10.33;;
13435;SDS011;6790;49.520;8.504;2023-04-21T09:51:14;13.37;;;9.87;;
13435;SDS011;6790;49.520;8.504;2023-04-21T09:53:42;15.13;;;9.77;;
13435;SDS011;6790;49.520;8.504;2023-04-21T09:56:14;15.90;;;10.87;;
13435;SDS011;6790;49.520;8.504;2023-04-21T09:58:46;16.33;;;10.60;;
13435;SDS011;6790;49.520;8.504;2023-04-21T10:01:18;15.33;;;11.10;;
13435;SDS011;6790;49.520;8.504;2023-04-21T10:03:46;17.03;;;11.33;;
13435;SDS011;6790;49.520;8.504;2023-04-21T10:06:13;16.60;;;11.03;;
13435;SDS011;6790;49.520;8.504;2023-04-21T10:08:39;14.63;;;10.53;;
13435;SDS011;6790;49.520;8.504;2023-04-21T10:11:06;15.43;;;11.00;;
13435;SDS011;6790;49.520;8.504;2023-04-21T10:13:33;15.00;;;9.97;;
13435;SDS011;6790;49.520;8.504;2023-04-21T10:16:00;12.10;;;8.93;;
13435;SDS011;6790;49.520;8.504;2023-04-21T10:18:28;13.50;;;9.43;;
13435;SDS011;6790;49.520;8.504;2023-04-21T10:21:01;11.37;;;9.50;;
13435;SDS011;6790;49.520;8.504;2023-04-21T10:23:38;11.87;;;9.37;;
13435;SDS011;6790;49.520;8.504;2023-04-21T10:26:08;19.17;;;13.00;;
13435;SDS011;6790;49.520;8.504;2023-04-21T10:31:33;11.90;;;8.73;;
13435;SDS011;6790;49.520;8.504;2023-04-21T10:44:41;8.77;;;6.90;;
13435;SDS011;6790;49.520;8.504;2023-04-21T10:47:08;8.30;;;7.17;;
13435;SDS011;6790;49.520;8.504;2023-04-21T10:49:37;9.03;;;6.63;;
13435;SDS011;6790;49.520;8.504;2023-04-21T10:52:05;8.03;;;6.30;;
13435;SDS011;6790;49.520;8.504;2023-04-21T10:54:42;8.87;;;6.60;;
13435;SDS011;6790;49.520;8.504;2023-04-21T10:57:30;14.27;;;11.50;;
13435;SDS011;6790;49.520;8.504;2023-04-21T10:59:58;7.23;;;6.53;;
13435;SDS011;6790;49.520;8.504;2023-04-21T11:02:24;8.67;;;5.93;;
13435;SDS011;6790;49.520;8.504;2023-04-21T11:04:51;6.93;;;5.50;;
13435;SDS011;6790;49.520;8.504;2023-04-21T11:07:21;7.40;;;5.60;;
13435;SDS011;6790;49.520;8.504;2023-04-21T11:10:22;6.00;;;5.40;;
13435;SDS011;6790;49.520;8.504;2023-04-21T11:12:41;6.67;;;5.20;;
13435;SDS011;6790;49.520;8.504;2023-04-21T11:15:10;5.63;;;4.90;;
13435;SDS011;6790;49.520;8.504;2023-04-21T11:17:38;5.40;;;4.67;;
13435;SDS011;6790;49.520;8.504;2023-04-21T11:20:07;6.67;;;5.40;;
13435;SDS011;6790;49.520;8.504;2023-04-21T11:22:34;8.07;;;5.13;;
13435;SDS011;6790;49.520;8.504;2023-04-21T11:25:01;5.88;;;5.00;;
13435;SDS011;6790;49.520;8.504;2023-04-21T11:27:28;6.25;;;5.03;;
13435;SDS011;6790;49.520;8.504;2023-04-21T11:29:55;8.18;;;5.93;;
13435;SDS011;6790;49.520;8.504;2023-04-21T11:32:21;5.83;;;5.00;;
13435;SDS011;6790;49.520;8.504;2023-04-21T11:34:47;6.22;;;5.28;;
13435;SDS011;6790;49.520;8.504;2023-04-21T11:37:21;7.13;;;5.78;;
13435;SDS011;6790;49.520;8.504;2023-04-21T11:40:00;7.45;;;6.20;;
13435;SDS011;6790;49.520;8.504;2023-04-21T11:42:25;8.48;;;5.80;;
13435;SDS011;6790;49.520;8.504;2023-04-21T11:44:55;5.80;;;5.25;;
13435;SDS011;6790;49.520;8.504;2023-04-21T11:47:22;6.50;;;5.82;;
13435;SDS011;6790;49.520;8.504;2023-04-21T11:49:57;6.53;;;5.70;;
13435;SDS011;6790;49.520;8.504;2023-04-21T11:52:32;5.80;;;5.20;;
13435;SDS011;6790;49.520;8.504;2023-04-21T11:57:41;5.32;;;4.75;;
13435;SDS011;6790;49.520;8.504;2023-04-21T12:00:08;5.10;;;4.60;;
13435;SDS011;6790;49.520;8.504;2023-04-21T12:02:37;8.27;;;5.05;;
13435;SDS011;6790;49.520;8.504;2023-04-21T12:05:04;5.78;;;5.03;;
13435;SDS011;6790;49.520;8.504;2023-04-21T12:07:39;7.68;;;5.85;;
13435;SDS011;6790;49.520;8.504;2023-04-21T12:10:08;6.15;;;5.20;;
13435;SDS011;6790;49.520;8.504;2023-04-21T12:12:42;6.60;;;5.50;;
13435;SDS011;6790;49.520;8.504;2023-04-21T12:15:09;7.72;;;5.25;;
13435;SDS011;6790;49.520;8.504;2023-04-21T12:17:46;6.10;;;5.10;;
13435;SDS011;6790;49.520;8.504;2023-04-21T12:20:21;6.45;;;4.93;;
13435;SDS011;6790;49.520;8.504;2023-04-21T12:22:49;7.80;;;5.53;;
13435;SDS011;6790;49.520;8.504;2023-04-21T12:25:15;6.60;;;5.15;;
13435;SDS011;6790;49.520;8.504;2023-04-21T12:27:50;6.97;;;5.38;;
13435;SDS011;6790;49.520;8.504;2023-04-21T12:30:18;6.68;;;5.85;;
13435;SDS011;6790;49.520;8.504;2023-04-21T12:32:44;5.93;;;5.25;;
13435;SDS011;6790;49.520;8.504;2023-04-21T12:35:11;7.15;;;5.53;;
13435;SDS011;6790;49.520;8.504;2023-04-21T12:37:37;6.25;;;5.05;;
13435;SDS011;6790;49.520;8.504;2023-04-21T12:40:03;7.47;;;5.80;;
13435;SDS011;6790;49.520;8.504;2023-04-21T12:42:30;7.53;;;6.13;;
13435;SDS011;6790;49.520;8.504;2023-04-21T12:44:56;8.50;;;5.78;;
13435;SDS011;6790;49.520;8.504;2023-04-21T12:47:22;6.18;;;5.57;;
13435;SDS011;6790;49.520;8.504;2023-04-21T12:49:47;6.68;;;5.63;;
13435;SDS011;6790;49.520;8.504;2023-04-21T12:52:13;5.88;;;4.95;;
13435;SDS011;6790;49.520;8.504;2023-04-21T12:54:39;7.35;;;5.50;;
13435;SDS011;6790;49.520;8.504;2023-04-21T12:57:05;7.72;;;5.93;;
13435;SDS011;6790;49.520;8.504;2023-04-21T12:59:31;6.10;;;5.50;;
13435;SDS011;6790;49.520;8.504;2023-04-21T13:01:57;7.10;;;6.07;;
13435;SDS011;6790;49.520;8.504;2023-04-21T13:04:22;7.65;;;5.25;;
13435;SDS011;6790;49.520;8.504;2023-04-21T13:06:48;5.93;;;5.22;;
13435;SDS011;6790;49.520;8.504;2023-04-21T13:09:14;6.00;;;5.40;;
13435;SDS011;6790;49.520;8.504;2023-04-21T13:11:40;7.10;;;5.13;;
13435;SDS011;6790;49.520;8.504;2023-04-21T13:14:06;8.60;;;5.40;;
13435;SDS011;6790;49.520;8.504;2023-04-21T13:16:32;6.30;;;4.95;;
13435;SDS011;6790;49.520;8.504;2023-04-21T13:18:57;5.70;;;5.10;;
13435;SDS011;6790;49.520;8.504;2023-04-21T13:21:23;7.35;;;5.25;;
13435;SDS011;6790;49.520;8.504;2023-04-21T13:23:49;5.82;;;5.22;;
13435;SDS011;6790;49.520;8.504;2023-04-21T13:26:15;6.15;;;5.47;;
13435;SDS011;6790;49.520;8.504;2023-04-21T13:28:41;4.85;;;4.35;;
13435;SDS011;6790;49.520;8.504;2023-04-21T13:31:07;9.25;;;5.20;;
13435;SDS011;6790;49.520;8.504;2023-04-21T13:33:32;11.77;;;5.00;;
13435;SDS011;6790;49.520;8.504;2023-04-21T13:35:59;5.65;;;4.90;;
13435;SDS011;6790;49.520;8.504;2023-04-21T13:38:27;5.93;;;5.30;;
13435;SDS011;6790;49.520;8.504;2023-04-21T13:40:54;7.65;;;5.22;;
13435;SDS011;6790;49.520;8.504;2023-04-21T13:43:20;5.95;;;5.40;;
13435;SDS011;6790;49.520;8.504;2023-04-21T13:45:46;6.20;;;5.60;;
13435;SDS011;6790;49.520;8.504;2023-04-21T13:48:37;6.78;;;6.07;;
13435;SDS011;6790;49.520;8.504;2023-04-21T13:51:12;7.28;;;6.35;;
13435;SDS011;6790;49.520;8.504;2023-04-21T13:53:57;7.75;;;6.00;;
13435;SDS011;6790;49.520;8.504;2023-04-21T13:56:25;6.50;;;5.88;;
13435;SDS011;6790;49.520;8.504;2023-04-21T13:58:51;7.30;;;6.10;;
13435;SDS011;6790;49.520;8.504;2023-04-21T14:01:23;8.02;;;5.88;;
13435;SDS011;6790;49.520;8.504;2023-04-21T14:03:55;7.10;;;6.40;;
13435;SDS011;6790;49.520;8.504;2023-04-21T14:06:24;7.90;;;6.00;;
13435;SDS011;6790;49.520;8.504;2023-04-21T14:08:50;7.90;;;5.93;;
13435;SDS011;6790;49.520;8.504;2023-04-21T14:11:27;6.03;;;5.38;;
13435;SDS011;6790;49.520;8.504;2023-04-21T14:13:54;6.70;;;6.00;;
13435;SDS011;6790;49.520;8.504;2023-04-21T14:16:25;7.25;;;5.43;;
13435;SDS011;6790;49.520;8.504;2023-04-21T14:21:50;6.20;;;5.60;;
13435;SDS011;6790;49.520;8.504;2023-04-21T14:24:19;7.35;;;6.03;;
13435;SDS011;6790;49.520;8.504;2023-04-21T14:26:45;6.43;;;5.78;;
13435;SDS011;6790;49.520;8.504;2023-04-21T14:29:13;6.65;;;5.68;;
13435;SDS011;6790;49.520;8.504;2023-04-21T14:31:39;6.38;;;5.50;;
13435;SDS011;6790;49.520;8.504;2023-04-21T14:34:07;5.85;;;5.13;;
13435;SDS011;6790;49.520;8.504;2023-04-21T14:36:35;5.93;;;4.88;;
13435;SDS011;6790;49.520;8.504;2023-04-21T14:39:04;5.00;;;4.50;;
13435;SDS011;6790;49.520;8.504;2023-04-21T14:41:32;5.35;;;4.78;;
13435;SDS011;6790;49.520;8.504;2023-04-21T14:44:01;4.40;;;4.00;;
13435;SDS011;6790;49.520;8.504;2023-04-21T14:46:27;4.47;;;4.07;;
13435;SDS011;6790;49.520;8.504;2023-04-21T14:48:53;5.25;;;4.47;;
13435;SDS011;6790;49.520;8.504;2023-04-21T14:51:19;5.13;;;4.55;;
13435;SDS011;6790;49.520;8.504;2023-04-21T14:53:45;5.75;;;5.10;;
13435;SDS011;6790;49.520;8.504;2023-04-21T14:56:11;5.80;;;5.05;;
13435;SDS011;6790;49.520;8.504;2023-04-21T14:58:37;5.93;;;4.72;;
13435;SDS011;6790;49.520;8.504;2023-04-21T15:01:03;6.57;;;4.80;;
13435;SDS011;6790;49.520;8.504;2023-04-21T15:03:29;4.97;;;4.55;;
13435;SDS011;6790;49.520;8.504;2023-04-21T15:05:55;6.28;;;5.10;;
13435;SDS011;6790;49.520;8.504;2023-04-21T15:08:21;7.80;;;4.93;;
13435;SDS011;6790;49.520;8.504;2023-04-21T15:10:46;6.50;;;5.30;;